Triumph — WDC9555 — position and weather

sailwx.info

Track history (hours):
 
Tides and Currents Weather Stations Pressure Air Temp Water Temp Dewpoint Dewpoint Depression Visibility Wind Speed Wind Dir Waves Ship Positions

Triumph

Owner: WESTERN TOWBOAT CO, SEATTLE, WA. More information available from US FCC via Universal Licensing System and Coast Guard Vessel Documentation Center.

Last reported at 2017-Nov-23 04:02 UTC. Time now 2017-Nov-24 03:57 UTC.
Position N 47°34' W 122°21'.

Length 24 m; draft 3 m.

Type: Tow > 200 m length. MMSI: 367103880.

Date/timePositionNaut miles runAvg speedWind from/ knotsBaromVisibWave heightAir tempDewpointWater temp
2017-Nov-23 04:02N 47°34' W 122°21'0 0.5
2017-Nov-23 03:59N 47°34' W 122°21'2 4.6
2017-Nov-23 03:30N 47°36' W 122°23'4 7.2
2017-Nov-23 03:01N 47°33' W 122°25'4 8.9
2017-Nov-23 02:31N 47°28' W 122°24'5 9.5
2017-Nov-23 02:00N 47°24' W 122°21'4 8.6
2017-Nov-23 01:31N 47°20' W 122°25'4 0.6
2017-Nov-22 19:31N 47°17' W 122°23'1 6.9
2017-Nov-22 19:25N 47°17' W 122°24'  
2017-Nov-20 00:30N 47°55' W 122°30'4 7.1
2017-Nov-19 23:56N 47°57' W 122°35'23 4.7
2017-Nov-19 18:54N 48°20' W 122°44'3 6.1
2017-Nov-19 18:25N 48°23' W 122°42'2 5.2
2017-Nov-19 17:58N 48°25' W 122°42'3 5.5
2017-Nov-19 17:30N 48°28' W 122°43'3 6.0
2017-Nov-19 17:00N 48°31' W 122°44'3 6.1
2017-Nov-19 16:30N 48°34' W 122°45'3 5.9
2017-Nov-19 16:00N 48°37' W 122°45'3 6.2
2017-Nov-19 15:30N 48°39' W 122°44'3 5.7
2017-Nov-19 15:00N 48°42' W 122°45'2 4.7
2017-Nov-19 14:29N 48°44' W 122°47'3 6.1
2017-Nov-19 14:00N 48°46' W 122°50'3 6.3
2017-Nov-19 13:28N 48°48' W 122°54'8 5.3
2017-Nov-19 12:02N 48°52' W 123°04'1 5.2
2017-Nov-19 11:55N 48°53' W 123°05'2 5.4
2017-Nov-19 11:29N 48°54' W 123°07'3 5.3
2017-Nov-19 11:00N 48°56' W 123°10'3 5.2
2017-Nov-19 10:28N 48°58' W 123°13'3 5.9
2017-Nov-19 10:00N 48°60' W 123°16'3 6.0
2017-Nov-19 09:29N 49°02' W 123°19'3 6.5
2017-Nov-19 09:00N 49°06' W 123°19'4 7.5
2017-Nov-19 08:30N 49°08' W 123°15'4 7.9
2017-Nov-19 08:00N 49°07' W 123°09'4 7.9
2017-Nov-19 07:30N 49°08' W 123°03'1 2.4
2017-Nov-19 07:00N 49°09' W 123°02'0 0.1
2017-Nov-19 06:30N 49°09' W 123°02'0 0.0
2017-Nov-19 06:00N 49°09' W 123°02'0 0.0
2017-Nov-19 05:30N 49°09' W 123°02'0 0.0
2017-Nov-19 05:00N 49°09' W 123°02'0 0.0
2017-Nov-19 04:30N 49°09' W 123°02'0 0.0
2017-Nov-19 04:00N 49°09' W 123°02'0 0.0
2017-Nov-19 03:30N 49°09' W 123°02'0 0.0
2017-Nov-19 03:00N 49°09' W 123°02'0 0.0
2017-Nov-19 02:30N 49°09' W 123°02'0 0.0
2017-Nov-19 02:00N 49°09' W 123°02'0 0.0
2017-Nov-19 01:30N 49°09' W 123°02'0 0.0
2017-Nov-19 01:00N 49°09' W 123°02'0 0.0
2017-Nov-19 00:30N 49°09' W 123°02'0 0.0
2017-Nov-19 00:00N 49°09' W 123°02'0 0.0
2017-Nov-18 23:30N 49°09' W 123°02'0 0.0
2017-Nov-18 23:00N 49°09' W 123°02'0 0.0
2017-Nov-18 22:30N 49°09' W 123°02'0 0.0
2017-Nov-18 22:00N 49°09' W 123°02'0 0.0
2017-Nov-18 21:30N 49°09' W 123°02'0 0.0
2017-Nov-18 21:00N 49°09' W 123°02'0 0.0
2017-Nov-18 20:30N 49°09' W 123°02'0 0.0
2017-Nov-18 20:00N 49°09' W 123°02'0 0.0
2017-Nov-18 19:30N 49°09' W 123°02'0 0.0
2017-Nov-18 19:00N 49°09' W 123°02'0 0.0
2017-Nov-18 18:30N 49°09' W 123°02'0 0.0
2017-Nov-18 18:00N 49°09' W 123°02'0 0.0
2017-Nov-18 17:30N 49°09' W 123°02'0 0.0
2017-Nov-18 17:00N 49°09' W 123°02'0 0.0
2017-Nov-18 16:30N 49°09' W 123°02'0 0.0
2017-Nov-18 16:00N 49°09' W 123°02'0 0.0
2017-Nov-18 15:30N 49°09' W 123°02'0 0.0
2017-Nov-18 15:00N 49°09' W 123°02'0 0.0
2017-Nov-18 14:30N 49°09' W 123°02'0 0.0
2017-Nov-18 14:00N 49°09' W 123°02'0 0.1
2017-Nov-18 13:30N 49°09' W 123°02'1 2.3
2017-Nov-18 13:00N 49°08' W 123°03'4 8.6
2017-Nov-18 12:29N 49°07' W 123°10'4 7.9
2017-Nov-18 11:56N 49°07' W 123°16'3 7.1
2017-Nov-18 11:30N 49°04' W 123°19'12 9.6
2017-Nov-18 10:17N 48°56' W 123°06'910.2
2017-Nov-18 09:21N 48°50' W 122°55'810.0
2017-Nov-18 08:31N 48°45' W 122°45'010.2
2017-Nov-18 08:29N 48°45' W 122°45'510.1
2017-Nov-18 08:00N 48°40' W 122°42'4 8.9
2017-Nov-18 07:30N 48°36' W 122°45'4 8.8
2017-Nov-18 07:00N 48°32' W 122°44'4 8.1
2017-Nov-18 06:30N 48°28' W 122°44'29 9.0
2017-Nov-18 03:19N 47°60' W 122°35'412.1
2017-Nov-18 03:01N 47°57' W 122°31'611.1
2017-Nov-18 02:31N 47°53' W 122°26'5 9.4
2017-Nov-18 02:00N 47°56' W 122°20'4 8.9
2017-Nov-18 01:31N 47°58' W 122°15'1 2.1
2017-Nov-18 01:00N 47°59' W 122°13'0 0.0
2017-Nov-18 00:30N 47°59' W 122°13'0 0.0
2017-Nov-18 00:01N 47°59' W 122°13'0 0.0
2017-Nov-17 23:30N 47°59' W 122°13'0 0.0
2017-Nov-17 23:01N 47°59' W 122°13'0 0.0
2017-Nov-17 22:31N 47°59' W 122°13'0 0.0
2017-Nov-17 22:01N 47°59' W 122°13'0 0.0
2017-Nov-17 21:30N 47°59' W 122°13'0 0.0
2017-Nov-17 21:01N 47°59' W 122°13'0 0.0
2017-Nov-17 20:30N 47°59' W 122°13'0 0.0
2017-Nov-17 20:00N 47°59' W 122°13'0 0.0
2017-Nov-17 19:31N 47°59' W 122°13'0 0.0
2017-Nov-17 19:01N 47°59' W 122°13'0 0.0
2017-Nov-17 18:30N 47°59' W 122°13'0 0.0
2017-Nov-17 18:00N 47°59' W 122°13'0 0.0
2017-Nov-17 17:31N 47°59' W 122°13'0 0.0
2017-Nov-17 17:00N 47°59' W 122°13'0 0.0
2017-Nov-17 16:30N 47°59' W 122°13'0 0.0
2017-Nov-17 16:00N 47°59' W 122°13'0 0.0
2017-Nov-17 15:31N 47°59' W 122°13'0 0.0
2017-Nov-17 15:00N 47°59' W 122°13'0 0.0
2017-Nov-17 14:31N 47°59' W 122°13'0 0.0
2017-Nov-17 14:00N 47°59' W 122°13'0 0.0
2017-Nov-17 13:31N 47°59' W 122°13'0 0.0
2017-Nov-17 13:01N 47°59' W 122°13'0 0.0
2017-Nov-17 12:31N 47°59' W 122°13'0 0.0
2017-Nov-17 12:01N 47°59' W 122°13'0 0.0
2017-Nov-17 11:30N 47°59' W 122°13'0 0.0
2017-Nov-17 11:00N 47°59' W 122°13'0 0.0
2017-Nov-17 10:30N 47°59' W 122°13'0 0.0
2017-Nov-17 10:01N 47°59' W 122°13'0 0.0
2017-Nov-17 09:30N 47°59' W 122°13'0 0.0
2017-Nov-17 09:01N 47°59' W 122°13'0 0.0
2017-Nov-17 08:30N 47°59' W 122°13'0 0.0
2017-Nov-17 08:00N 47°59' W 122°13'0 0.0
2017-Nov-17 07:30N 47°59' W 122°13'0 0.0
2017-Nov-17 07:00N 47°59' W 122°13'0 0.0
2017-Nov-17 06:30N 47°59' W 122°13'0 0.0
2017-Nov-17 06:01N 47°59' W 122°13'0 0.0
2017-Nov-17 05:30N 47°59' W 122°13'0 0.0
2017-Nov-17 05:00N 47°59' W 122°13'0 0.0
2017-Nov-17 04:31N 47°59' W 122°13'0 0.0
2017-Nov-17 04:00N 47°59' W 122°13'0 0.0
2017-Nov-17 03:30N 47°59' W 122°13'0 0.0
2017-Nov-17 03:01N 47°59' W 122°13'0 0.0
2017-Nov-17 02:31N 47°59' W 122°13'0 0.0
2017-Nov-17 02:01N 47°59' W 122°13'0 0.0
2017-Nov-17 01:31N 47°59' W 122°13'0 0.0
2017-Nov-17 01:00N 47°59' W 122°13'0 0.0
2017-Nov-17 00:31N 47°59' W 122°13'0 0.0
2017-Nov-17 00:01N 47°59' W 122°13'0 0.0
2017-Nov-16 23:30N 47°59' W 122°13'0 0.0
2017-Nov-16 23:01N 47°59' W 122°13'0 0.0
2017-Nov-16 22:29N 47°59' W 122°13'0 0.0
2017-Nov-16 22:00N 47°59' W 122°13'0 0.0
2017-Nov-16 21:30N 47°59' W 122°13'0 0.0
2017-Nov-16 21:01N 47°59' W 122°13'0 0.0
2017-Nov-16 20:30N 47°59' W 122°13'0 0.0
2017-Nov-16 20:01N 47°59' W 122°13'0 0.0
2017-Nov-16 19:31N 47°59' W 122°13'0 0.0
2017-Nov-16 19:01N 47°59' W 122°13'0 0.0
2017-Nov-16 18:31N 47°59' W 122°13'0 0.0
2017-Nov-16 18:01N 47°59' W 122°13'0 0.0
2017-Nov-16 17:30N 47°59' W 122°13'0 0.0
2017-Nov-16 17:00N 47°59' W 122°13'0 0.0
2017-Nov-16 16:31N 47°59' W 122°13'0 0.0
2017-Nov-16 16:00N 47°59' W 122°13'0 0.0
2017-Nov-16 15:30N 47°59' W 122°13'0 0.0
2017-Nov-16 15:00N 47°59' W 122°13'0 0.0
2017-Nov-16 14:30N 47°59' W 122°13'0 0.0
2017-Nov-16 14:00N 47°59' W 122°13'0 0.0
2017-Nov-16 13:31N 47°59' W 122°13'0 0.0
2017-Nov-16 13:00N 47°59' W 122°13'0 0.0
2017-Nov-16 12:30N 47°59' W 122°13'0 0.0
2017-Nov-16 12:00N 47°59' W 122°13'0 0.0
2017-Nov-16 11:30N 47°59' W 122°13'0 0.0
2017-Nov-16 11:01N 47°59' W 122°13'0 0.0
2017-Nov-16 10:31N 47°59' W 122°13'0 0.0
2017-Nov-16 10:01N 47°59' W 122°13'0 0.0
2017-Nov-16 09:31N 47°59' W 122°13'0 0.0
2017-Nov-16 09:01N 47°59' W 122°13'0 0.0
2017-Nov-16 08:30N 47°59' W 122°13'0 0.0
2017-Nov-16 08:00N 47°59' W 122°13'0 0.0
2017-Nov-16 07:30N 47°59' W 122°13'0 0.0
2017-Nov-16 07:00N 47°59' W 122°13'0 0.0
2017-Nov-16 06:31N 47°59' W 122°13'0 0.0
2017-Nov-16 06:01N 47°59' W 122°13'0 0.0
2017-Nov-16 05:31N 47°59' W 122°13'0 0.0
2017-Nov-16 05:00N 47°59' W 122°13'0 0.0
2017-Nov-16 04:31N 47°59' W 122°13'0 0.0
2017-Nov-16 04:01N 47°59' W 122°13'0 0.0
2017-Nov-16 03:30N 47°59' W 122°13'0 0.0
2017-Nov-16 03:00N 47°59' W 122°13'0 0.0
2017-Nov-16 02:30N 47°59' W 122°13'0 0.0
2017-Nov-16 02:00N 47°59' W 122°13'0 0.0
2017-Nov-16 01:31N 47°59' W 122°13'0 0.0
2017-Nov-16 01:01N 47°59' W 122°13'0 0.0
2017-Nov-16 00:31N 47°59' W 122°13'0 0.0
2017-Nov-16 00:01N 47°59' W 122°13'0 0.0
2017-Nov-15 23:31N 47°59' W 122°13'0 0.0
2017-Nov-15 22:56N 47°59' W 122°13'0 0.0
2017-Nov-15 22:30N 47°59' W 122°13'0 0.0
2017-Nov-15 21:58N 47°59' W 122°13'0 0.0
2017-Nov-15 21:25N 47°59' W 122°13'0 0.0
2017-Nov-15 21:00N 47°59' W 122°13'0 0.0
2017-Nov-15 20:29N 47°59' W 122°13'0 0.0
2017-Nov-15 20:00N 47°59' W 122°13'0 0.0
2017-Nov-15 19:30N 47°59' W 122°13'0 0.0
2017-Nov-15 19:00N 47°59' W 122°13'0 0.0
2017-Nov-15 18:30N 47°59' W 122°13'0 0.0
2017-Nov-15 18:00N 47°59' W 122°13'0 0.0
2017-Nov-15 17:30N 47°59' W 122°13'0 0.0
2017-Nov-15 17:00N 47°59' W 122°13'0 0.0
2017-Nov-15 16:19N 47°59' W 122°13'0 0.0
2017-Nov-15 16:01N 47°59' W 122°13'0 0.0
2017-Nov-15 15:30N 47°59' W 122°13'0 0.0
2017-Nov-15 15:01N 47°59' W 122°13'0 0.0
2017-Nov-15 14:31N 47°59' W 122°13'0 0.0
2017-Nov-15 14:01N 47°59' W 122°13'0 0.0
2017-Nov-15 13:30N 47°59' W 122°13'0 0.0
2017-Nov-15 13:00N 47°59' W 122°13'0 0.0
2017-Nov-15 12:30N 47°59' W 122°13'0 0.0
2017-Nov-15 12:00N 47°59' W 122°13'0 0.0
2017-Nov-15 11:30N 47°59' W 122°13'0 0.0
2017-Nov-15 11:00N 47°59' W 122°13'0 0.0
2017-Nov-15 10:30N 47°59' W 122°13'0 0.0
2017-Nov-15 10:00N 47°59' W 122°13'0 0.0
2017-Nov-15 09:30N 47°59' W 122°13'0 0.0
2017-Nov-15 09:00N 47°59' W 122°13'0 0.0
2017-Nov-15 08:31N 47°59' W 122°13'0 0.0
2017-Nov-15 08:00N 47°59' W 122°13'0 0.0
2017-Nov-15 07:31N 47°59' W 122°13'0 0.0
2017-Nov-15 07:00N 47°59' W 122°13'0 0.0
2017-Nov-15 06:30N 47°59' W 122°13'0 0.0
2017-Nov-15 06:00N 47°59' W 122°13'0 0.0
2017-Nov-15 05:30N 47°59' W 122°13'0 0.0
2017-Nov-15 05:00N 47°59' W 122°13'0 0.0
2017-Nov-15 04:30N 47°59' W 122°13'0 0.0
2017-Nov-15 04:01N 47°59' W 122°13'0 0.0
2017-Nov-15 03:30N 47°59' W 122°13'0 0.0
2017-Nov-15 03:01N 47°59' W 122°13'0 0.0
2017-Nov-15 02:30N 47°59' W 122°13'0 0.0
2017-Nov-15 02:00N 47°59' W 122°13'0 0.0
2017-Nov-15 01:30N 47°59' W 122°13'0 0.0
2017-Nov-15 01:01N 47°59' W 122°13'0 0.0
2017-Nov-15 00:30N 47°59' W 122°13'0 0.0
2017-Nov-15 00:00N 47°59' W 122°13'0 0.0
2017-Nov-14 23:31N 47°59' W 122°13'0 0.0
2017-Nov-14 23:00N 47°59' W 122°13'0 0.0
2017-Nov-14 22:31N 47°59' W 122°13'0 0.0
2017-Nov-14 22:00N 47°59' W 122°13'0 0.0
2017-Nov-14 21:31N 47°59' W 122°13'0 0.0
2017-Nov-14 21:00N 47°59' W 122°13'0 0.0
2017-Nov-14 20:30N 47°59' W 122°13'0 0.0
2017-Nov-14 20:01N 47°59' W 122°13'0 0.0
2017-Nov-14 19:31N 47°59' W 122°13'0 0.0
2017-Nov-14 19:00N 47°59' W 122°13'0 0.0
2017-Nov-14 18:31N 47°59' W 122°13'0 0.0
2017-Nov-14 18:01N 47°59' W 122°13'0 0.0
2017-Nov-14 17:30N 47°59' W 122°13'0 0.0
2017-Nov-14 17:00N 47°59' W 122°13'0 0.0
2017-Nov-14 16:31N 47°59' W 122°13'0 0.0
2017-Nov-14 16:00N 47°59' W 122°13'0 0.0
2017-Nov-14 15:31N 47°59' W 122°13'0 0.0
2017-Nov-14 15:00N 47°59' W 122°13'0 0.0
2017-Nov-14 14:29N 47°59' W 122°13'0 0.0
2017-Nov-14 14:00N 47°59' W 122°13'0 0.0
2017-Nov-14 13:31N 47°59' W 122°13'0 0.0
2017-Nov-14 13:00N 47°59' W 122°13'0 0.0
2017-Nov-14 12:30N 47°59' W 122°13'0 0.0
2017-Nov-14 12:01N 47°59' W 122°13'0 0.0
2017-Nov-14 11:30N 47°59' W 122°13'0 0.0
2017-Nov-14 11:00N 47°59' W 122°13'0 0.0
2017-Nov-14 10:30N 47°59' W 122°13'0 0.0
2017-Nov-14 10:00N 47°59' W 122°13'0 0.0
2017-Nov-14 09:30N 47°59' W 122°13'0 0.0
2017-Nov-14 09:00N 47°59' W 122°13'0 0.0
2017-Nov-14 08:31N 47°59' W 122°13'0 0.0
2017-Nov-14 08:00N 47°59' W 122°13'0 0.0
2017-Nov-14 07:30N 47°59' W 122°13'0 0.0
2017-Nov-14 07:00N 47°59' W 122°13'0 0.0
2017-Nov-14 06:31N 47°59' W 122°13'0 0.0
2017-Nov-14 05:59N 47°59' W 122°13'0 0.0
2017-Nov-14 05:28N 47°59' W 122°13'0 0.0
2017-Nov-14 05:00N 47°59' W 122°13'0 0.0
2017-Nov-14 04:30N 47°59' W 122°13'0 0.0
2017-Nov-14 04:00N 47°59' W 122°13'0 0.0
2017-Nov-14 03:31N 47°59' W 122°13'0 0.0
2017-Nov-14 02:59N 47°59' W 122°13'0 0.0
2017-Nov-14 02:30N 47°59' W 122°13'0 0.0
2017-Nov-14 02:01N 47°59' W 122°13'0 0.0
2017-Nov-14 01:30N 47°59' W 122°13'0 0.0
2017-Nov-14 01:01N 47°59' W 122°13'0 0.0
2017-Nov-14 00:30N 47°59' W 122°13'0 0.0
2017-Nov-14 00:00N 47°59' W 122°13'0 0.0
2017-Nov-13 23:29N 47°59' W 122°13'0 0.0
2017-Nov-13 23:00N 47°59' W 122°13'0 0.0
2017-Nov-13 22:30N 47°59' W 122°13'0 0.0
2017-Nov-13 22:01N 47°59' W 122°13'  
Track history (hours):
 
Tides and Currents Weather Stations Pressure Air Temp Water Temp Dewpoint Dewpoint Depression Visibility Wind Speed Wind Dir Waves Ship Positions

Triumph

Owner: WESTERN TOWBOAT CO, SEATTLE, WA. More information available from US FCC via Universal Licensing System and Coast Guard Vessel Documentation Center.

Last reported at 2017-Nov-23 04:02 UTC. Time now 2017-Nov-24 03:57 UTC.
Position N 47°34' W 122°21'.

Length 24 m; draft 3 m.

Type: Tow > 200 m length. MMSI: 367103880.

Date/timePositionNaut miles runAvg speedWind from/ knotsBaromVisibWave heightAir tempDewpointWater temp
2017-Nov-23 04:02N 47°34' W 122°21'0 0.5
2017-Nov-23 03:59N 47°34' W 122°21'2 4.6
2017-Nov-23 03:30N 47°36' W 122°23'4 7.2
2017-Nov-23 03:01N 47°33' W 122°25'4 8.9
2017-Nov-23 02:31N 47°28' W 122°24'5 9.5
2017-Nov-23 02:00N 47°24' W 122°21'4 8.6
2017-Nov-23 01:31N 47°20' W 122°25'4 0.6
2017-Nov-22 19:31N 47°17' W 122°23'1 6.9
2017-Nov-22 19:25N 47°17' W 122°24'  
2017-Nov-20 00:30N 47°55' W 122°30'4 7.1
2017-Nov-19 23:56N 47°57' W 122°35'23 4.7
2017-Nov-19 18:54N 48°20' W 122°44'3 6.1
2017-Nov-19 18:25N 48°23' W 122°42'2 5.2
2017-Nov-19 17:58N 48°25' W 122°42'3 5.5
2017-Nov-19 17:30N 48°28' W 122°43'3 6.0
2017-Nov-19 17:00N 48°31' W 122°44'3 6.1
2017-Nov-19 16:30N 48°34' W 122°45'3 5.9
2017-Nov-19 16:00N 48°37' W 122°45'3 6.2
2017-Nov-19 15:30N 48°39' W 122°44'3 5.7
2017-Nov-19 15:00N 48°42' W 122°45'2 4.7
2017-Nov-19 14:29N 48°44' W 122°47'3 6.1
2017-Nov-19 14:00N 48°46' W 122°50'3 6.3
2017-Nov-19 13:28N 48°48' W 122°54'8 5.3
2017-Nov-19 12:02N 48°52' W 123°04'1 5.2
2017-Nov-19 11:55N 48°53' W 123°05'2 5.4
2017-Nov-19 11:29N 48°54' W 123°07'3 5.3
2017-Nov-19 11:00N 48°56' W 123°10'3 5.2
2017-Nov-19 10:28N 48°58' W 123°13'3 5.9
2017-Nov-19 10:00N 48°60' W 123°16'3 6.0
2017-Nov-19 09:29N 49°02' W 123°19'3 6.5
2017-Nov-19 09:00N 49°06' W 123°19'4 7.5
2017-Nov-19 08:30N 49°08' W 123°15'4 7.9
2017-Nov-19 08:00N 49°07' W 123°09'4 7.9
2017-Nov-19 07:30N 49°08' W 123°03'1 2.4
2017-Nov-19 07:00N 49°09' W 123°02'0 0.1
2017-Nov-19 06:30N 49°09' W 123°02'0 0.0
2017-Nov-19 06:00N 49°09' W 123°02'0 0.0
2017-Nov-19 05:30N 49°09' W 123°02'0 0.0
2017-Nov-19 05:00N 49°09' W 123°02'0 0.0
2017-Nov-19 04:30N 49°09' W 123°02'0 0.0
2017-Nov-19 04:00N 49°09' W 123°02'0 0.0
2017-Nov-19 03:30N 49°09' W 123°02'0 0.0
2017-Nov-19 03:00N 49°09' W 123°02'0 0.0
2017-Nov-19 02:30N 49°09' W 123°02'0 0.0
2017-Nov-19 02:00N 49°09' W 123°02'0 0.0
2017-Nov-19 01:30N 49°09' W 123°02'0 0.0
2017-Nov-19 01:00N 49°09' W 123°02'0 0.0
2017-Nov-19 00:30N 49°09' W 123°02'0 0.0
2017-Nov-19 00:00N 49°09' W 123°02'0 0.0
2017-Nov-18 23:30N 49°09' W 123°02'0 0.0
2017-Nov-18 23:00N 49°09' W 123°02'0 0.0
2017-Nov-18 22:30N 49°09' W 123°02'0 0.0
2017-Nov-18 22:00N 49°09' W 123°02'0 0.0
2017-Nov-18 21:30N 49°09' W 123°02'0 0.0
2017-Nov-18 21:00N 49°09' W 123°02'0 0.0
2017-Nov-18 20:30N 49°09' W 123°02'0 0.0
2017-Nov-18 20:00N 49°09' W 123°02'0 0.0
2017-Nov-18 19:30N 49°09' W 123°02'0 0.0
2017-Nov-18 19:00N 49°09' W 123°02'0 0.0
2017-Nov-18 18:30N 49°09' W 123°02'0 0.0
2017-Nov-18 18:00N 49°09' W 123°02'0 0.0
2017-Nov-18 17:30N 49°09' W 123°02'0 0.0
2017-Nov-18 17:00N 49°09' W 123°02'0 0.0
2017-Nov-18 16:30N 49°09' W 123°02'0 0.0
2017-Nov-18 16:00N 49°09' W 123°02'0 0.0
2017-Nov-18 15:30N 49°09' W 123°02'0 0.0
2017-Nov-18 15:00N 49°09' W 123°02'0 0.0
2017-Nov-18 14:30N 49°09' W 123°02'0 0.0
2017-Nov-18 14:00N 49°09' W 123°02'0 0.1
2017-Nov-18 13:30N 49°09' W 123°02'1 2.3
2017-Nov-18 13:00N 49°08' W 123°03'4 8.6
2017-Nov-18 12:29N 49°07' W 123°10'4 7.9
2017-Nov-18 11:56N 49°07' W 123°16'3 7.1
2017-Nov-18 11:30N 49°04' W 123°19'12 9.6
2017-Nov-18 10:17N 48°56' W 123°06'910.2
2017-Nov-18 09:21N 48°50' W 122°55'810.0
2017-Nov-18 08:31N 48°45' W 122°45'010.2
2017-Nov-18 08:29N 48°45' W 122°45'510.1
2017-Nov-18 08:00N 48°40' W 122°42'4 8.9
2017-Nov-18 07:30N 48°36' W 122°45'4 8.8
2017-Nov-18 07:00N 48°32' W 122°44'4 8.1
2017-Nov-18 06:30N 48°28' W 122°44'29 9.0
2017-Nov-18 03:19N 47°60' W 122°35'412.1
2017-Nov-18 03:01N 47°57' W 122°31'611.1
2017-Nov-18 02:31N 47°53' W 122°26'5 9.4
2017-Nov-18 02:00N 47°56' W 122°20'4 8.9
2017-Nov-18 01:31N 47°58' W 122°15'1 2.1
2017-Nov-18 01:00N 47°59' W 122°13'0 0.0
2017-Nov-18 00:30N 47°59' W 122°13'0 0.0
2017-Nov-18 00:01N 47°59' W 122°13'0 0.0
2017-Nov-17 23:30N 47°59' W 122°13'0 0.0
2017-Nov-17 23:01N 47°59' W 122°13'0 0.0
2017-Nov-17 22:31N 47°59' W 122°13'0 0.0
2017-Nov-17 22:01N 47°59' W 122°13'0 0.0
2017-Nov-17 21:30N 47°59' W 122°13'0 0.0
2017-Nov-17 21:01N 47°59' W 122°13'0 0.0
2017-Nov-17 20:30N 47°59' W 122°13'0 0.0
2017-Nov-17 20:00N 47°59' W 122°13'0 0.0
2017-Nov-17 19:31N 47°59' W 122°13'0 0.0
2017-Nov-17 19:01N 47°59' W 122°13'0 0.0
2017-Nov-17 18:30N 47°59' W 122°13'0 0.0
2017-Nov-17 18:00N 47°59' W 122°13'0 0.0
2017-Nov-17 17:31N 47°59' W 122°13'0 0.0
2017-Nov-17 17:00N 47°59' W 122°13'0 0.0
2017-Nov-17 16:30N 47°59' W 122°13'0 0.0
2017-Nov-17 16:00N 47°59' W 122°13'0 0.0
2017-Nov-17 15:31N 47°59' W 122°13'0 0.0
2017-Nov-17 15:00N 47°59' W 122°13'0 0.0
2017-Nov-17 14:31N 47°59' W 122°13'0 0.0
2017-Nov-17 14:00N 47°59' W 122°13'0 0.0
2017-Nov-17 13:31N 47°59' W 122°13'0 0.0
2017-Nov-17 13:01N 47°59' W 122°13'0 0.0
2017-Nov-17 12:31N 47°59' W 122°13'0 0.0
2017-Nov-17 12:01N 47°59' W 122°13'0 0.0
2017-Nov-17 11:30N 47°59' W 122°13'0 0.0
2017-Nov-17 11:00N 47°59' W 122°13'0 0.0
2017-Nov-17 10:30N 47°59' W 122°13'0 0.0
2017-Nov-17 10:01N 47°59' W 122°13'0 0.0
2017-Nov-17 09:30N 47°59' W 122°13'0 0.0
2017-Nov-17 09:01N 47°59' W 122°13'0 0.0
2017-Nov-17 08:30N 47°59' W 122°13'0 0.0
2017-Nov-17 08:00N 47°59' W 122°13'0 0.0
2017-Nov-17 07:30N 47°59' W 122°13'0 0.0
2017-Nov-17 07:00N 47°59' W 122°13'0 0.0
2017-Nov-17 06:30N 47°59' W 122°13'0 0.0
2017-Nov-17 06:01N 47°59' W 122°13'0 0.0
2017-Nov-17 05:30N 47°59' W 122°13'0 0.0
2017-Nov-17 05:00N 47°59' W 122°13'0 0.0
2017-Nov-17 04:31N 47°59' W 122°13'0 0.0
2017-Nov-17 04:00N 47°59' W 122°13'0 0.0
2017-Nov-17 03:30N 47°59' W 122°13'0 0.0
2017-Nov-17 03:01N 47°59' W 122°13'0 0.0
2017-Nov-17 02:31N 47°59' W 122°13'0 0.0
2017-Nov-17 02:01N 47°59' W 122°13'0 0.0
2017-Nov-17 01:31N 47°59' W 122°13'0 0.0
2017-Nov-17 01:00N 47°59' W 122°13'0 0.0
2017-Nov-17 00:31N 47°59' W 122°13'0 0.0
2017-Nov-17 00:01N 47°59' W 122°13'0 0.0
2017-Nov-16 23:30N 47°59' W 122°13'0 0.0
2017-Nov-16 23:01N 47°59' W 122°13'0 0.0
2017-Nov-16 22:29N 47°59' W 122°13'0 0.0
2017-Nov-16 22:00N 47°59' W 122°13'0 0.0
2017-Nov-16 21:30N 47°59' W 122°13'0 0.0
2017-Nov-16 21:01N 47°59' W 122°13'0 0.0
2017-Nov-16 20:30N 47°59' W 122°13'0 0.0
2017-Nov-16 20:01N 47°59' W 122°13'0 0.0
2017-Nov-16 19:31N 47°59' W 122°13'0 0.0
2017-Nov-16 19:01N 47°59' W 122°13'0 0.0
2017-Nov-16 18:31N 47°59' W 122°13'0 0.0
2017-Nov-16 18:01N 47°59' W 122°13'0 0.0
2017-Nov-16 17:30N 47°59' W 122°13'0 0.0
2017-Nov-16 17:00N 47°59' W 122°13'0 0.0
2017-Nov-16 16:31N 47°59' W 122°13'0 0.0
2017-Nov-16 16:00N 47°59' W 122°13'0 0.0
2017-Nov-16 15:30N 47°59' W 122°13'0 0.0
2017-Nov-16 15:00N 47°59' W 122°13'0 0.0
2017-Nov-16 14:30N 47°59' W 122°13'0 0.0
2017-Nov-16 14:00N 47°59' W 122°13'0 0.0
2017-Nov-16 13:31N 47°59' W 122°13'0 0.0
2017-Nov-16 13:00N 47°59' W 122°13'0 0.0
2017-Nov-16 12:30N 47°59' W 122°13'0 0.0
2017-Nov-16 12:00N 47°59' W 122°13'0 0.0
2017-Nov-16 11:30N 47°59' W 122°13'0 0.0
2017-Nov-16 11:01N 47°59' W 122°13'0 0.0
2017-Nov-16 10:31N 47°59' W 122°13'0 0.0
2017-Nov-16 10:01N 47°59' W 122°13'0 0.0
2017-Nov-16 09:31N 47°59' W 122°13'0 0.0
2017-Nov-16 09:01N 47°59' W 122°13'0 0.0
2017-Nov-16 08:30N 47°59' W 122°13'0 0.0
2017-Nov-16 08:00N 47°59' W 122°13'0 0.0
2017-Nov-16 07:30N 47°59' W 122°13'0 0.0
2017-Nov-16 07:00N 47°59' W 122°13'0 0.0
2017-Nov-16 06:31N 47°59' W 122°13'0 0.0
2017-Nov-16 06:01N 47°59' W 122°13'0 0.0
2017-Nov-16 05:31N 47°59' W 122°13'0 0.0
2017-Nov-16 05:00N 47°59' W 122°13'0 0.0
2017-Nov-16 04:31N 47°59' W 122°13'0 0.0
2017-Nov-16 04:01N 47°59' W 122°13'0 0.0
2017-Nov-16 03:30N 47°59' W 122°13'0 0.0
2017-Nov-16 03:00N 47°59' W 122°13'0 0.0
2017-Nov-16 02:30N 47°59' W 122°13'0 0.0
2017-Nov-16 02:00N 47°59' W 122°13'0 0.0
2017-Nov-16 01:31N 47°59' W 122°13'0 0.0
2017-Nov-16 01:01N 47°59' W 122°13'0 0.0
2017-Nov-16 00:31N 47°59' W 122°13'0 0.0
2017-Nov-16 00:01N 47°59' W 122°13'0 0.0
2017-Nov-15 23:31N 47°59' W 122°13'0 0.0
2017-Nov-15 22:56N 47°59' W 122°13'0 0.0
2017-Nov-15 22:30N 47°59' W 122°13'0 0.0
2017-Nov-15 21:58N 47°59' W 122°13'0 0.0
2017-Nov-15 21:25N 47°59' W 122°13'0 0.0
2017-Nov-15 21:00N 47°59' W 122°13'0 0.0
2017-Nov-15 20:29N 47°59' W 122°13'0 0.0
2017-Nov-15 20:00N 47°59' W 122°13'0 0.0
2017-Nov-15 19:30N 47°59' W 122°13'0 0.0
2017-Nov-15 19:00N 47°59' W 122°13'0 0.0
2017-Nov-15 18:30N 47°59' W 122°13'0 0.0
2017-Nov-15 18:00N 47°59' W 122°13'0 0.0
2017-Nov-15 17:30N 47°59' W 122°13'0 0.0
2017-Nov-15 17:00N 47°59' W 122°13'0 0.0
2017-Nov-15 16:19N 47°59' W 122°13'0 0.0
2017-Nov-15 16:01N 47°59' W 122°13'0 0.0
2017-Nov-15 15:30N 47°59' W 122°13'0 0.0
2017-Nov-15 15:01N 47°59' W 122°13'0 0.0
2017-Nov-15 14:31N 47°59' W 122°13'0 0.0
2017-Nov-15 14:01N 47°59' W 122°13'0 0.0
2017-Nov-15 13:30N 47°59' W 122°13'0 0.0
2017-Nov-15 13:00N 47°59' W 122°13'0 0.0
2017-Nov-15 12:30N 47°59' W 122°13'0 0.0
2017-Nov-15 12:00N 47°59' W 122°13'0 0.0
2017-Nov-15 11:30N 47°59' W 122°13'0 0.0
2017-Nov-15 11:00N 47°59' W 122°13'0 0.0
2017-Nov-15 10:30N 47°59' W 122°13'0 0.0
2017-Nov-15 10:00N 47°59' W 122°13'0 0.0
2017-Nov-15 09:30N 47°59' W 122°13'0 0.0
2017-Nov-15 09:00N 47°59' W 122°13'0 0.0
2017-Nov-15 08:31N 47°59' W 122°13'0 0.0
2017-Nov-15 08:00N 47°59' W 122°13'0 0.0
2017-Nov-15 07:31N 47°59' W 122°13'0 0.0
2017-Nov-15 07:00N 47°59' W 122°13'0 0.0
2017-Nov-15 06:30N 47°59' W 122°13'0 0.0
2017-Nov-15 06:00N 47°59' W 122°13'0 0.0
2017-Nov-15 05:30N 47°59' W 122°13'0 0.0
2017-Nov-15 05:00N 47°59' W 122°13'0 0.0
2017-Nov-15 04:30N 47°59' W 122°13'0 0.0
2017-Nov-15 04:01N 47°59' W 122°13'0 0.0
2017-Nov-15 03:30N 47°59' W 122°13'0 0.0
2017-Nov-15 03:01N 47°59' W 122°13'0 0.0
2017-Nov-15 02:30N 47°59' W 122°13'0 0.0
2017-Nov-15 02:00N 47°59' W 122°13'0 0.0
2017-Nov-15 01:30N 47°59' W 122°13'0 0.0
2017-Nov-15 01:01N 47°59' W 122°13'0 0.0
2017-Nov-15 00:30N 47°59' W 122°13'0 0.0
2017-Nov-15 00:00N 47°59' W 122°13'0 0.0
2017-Nov-14 23:31N 47°59' W 122°13'0 0.0
2017-Nov-14 23:00N 47°59' W 122°13'0 0.0
2017-Nov-14 22:31N 47°59' W 122°13'0 0.0
2017-Nov-14 22:00N 47°59' W 122°13'0 0.0
2017-Nov-14 21:31N 47°59' W 122°13'0 0.0
2017-Nov-14 21:00N 47°59' W 122°13'0 0.0
2017-Nov-14 20:30N 47°59' W 122°13'0 0.0
2017-Nov-14 20:01N 47°59' W 122°13'0 0.0
2017-Nov-14 19:31N 47°59' W 122°13'0 0.0
2017-Nov-14 19:00N 47°59' W 122°13'0 0.0
2017-Nov-14 18:31N 47°59' W 122°13'0 0.0
2017-Nov-14 18:01N 47°59' W 122°13'0 0.0
2017-Nov-14 17:30N 47°59' W 122°13'0 0.0
2017-Nov-14 17:00N 47°59' W 122°13'0 0.0
2017-Nov-14 16:31N 47°59' W 122°13'0 0.0
2017-Nov-14 16:00N 47°59' W 122°13'0 0.0
2017-Nov-14 15:31N 47°59' W 122°13'0 0.0
2017-Nov-14 15:00N 47°59' W 122°13'0 0.0
2017-Nov-14 14:29N 47°59' W 122°13'0 0.0
2017-Nov-14 14:00N 47°59' W 122°13'0 0.0
2017-Nov-14 13:31N 47°59' W 122°13'0 0.0
2017-Nov-14 13:00N 47°59' W 122°13'0 0.0
2017-Nov-14 12:30N 47°59' W 122°13'0 0.0
2017-Nov-14 12:01N 47°59' W 122°13'0 0.0
2017-Nov-14 11:30N 47°59' W 122°13'0 0.0
2017-Nov-14 11:00N 47°59' W 122°13'0 0.0
2017-Nov-14 10:30N 47°59' W 122°13'0 0.0
2017-Nov-14 10:00N 47°59' W 122°13'0 0.0
2017-Nov-14 09:30N 47°59' W 122°13'0 0.0
2017-Nov-14 09:00N 47°59' W 122°13'0 0.0
2017-Nov-14 08:31N 47°59' W 122°13'0 0.0
2017-Nov-14 08:00N 47°59' W 122°13'0 0.0
2017-Nov-14 07:30N 47°59' W 122°13'0 0.0
2017-Nov-14 07:00N 47°59' W 122°13'0 0.0
2017-Nov-14 06:31N 47°59' W 122°13'0 0.0
2017-Nov-14 05:59N 47°59' W 122°13'0 0.0
2017-Nov-14 05:28N 47°59' W 122°13'0 0.0
2017-Nov-14 05:00N 47°59' W 122°13'0 0.0
2017-Nov-14 04:30N 47°59' W 122°13'0 0.0
2017-Nov-14 04:00N 47°59' W 122°13'0 0.0
2017-Nov-14 03:31N 47°59' W 122°13'0 0.0
2017-Nov-14 02:59N 47°59' W 122°13'0 0.0
2017-Nov-14 02:30N 47°59' W 122°13'0 0.0
2017-Nov-14 02:01N 47°59' W 122°13'0 0.0
2017-Nov-14 01:30N 47°59' W 122°13'0 0.0
2017-Nov-14 01:01N 47°59' W 122°13'0 0.0
2017-Nov-14 00:30N 47°59' W 122°13'0 0.0
2017-Nov-14 00:00N 47°59' W 122°13'0 0.0
2017-Nov-13 23:29N 47°59' W 122°13'0 0.0
2017-Nov-13 23:00N 47°59' W 122°13'0 0.0
2017-Nov-13 22:30N 47°59' W 122°13'0 0.0
2017-Nov-13 22:01N 47°59' W 122°13'  

Dump ship's entire track history